Time;durP1;ratioP1;P1;durP2;ratioP2;P2;SDS_P1;SDS_P2;PMS_P1;PMS_P2;Temp;Humidity;BMP_temperature;BMP_pressure;BME280_temperature;BME280_humidity;BME280_pressure;Samples;Min_cycle;Max_cycle;Signal;HPM_P1;HPM_P2
2022/03/06 00:00:42;;;;;;;2.20;1.80;;;;;;;19.25;38.07;100698.00;5003554;28;20401;-40
2022/03/06 00:03:09;;;;;;;3.28;2.05;;;;;;;19.25;37.99;100697.19;5005759;28;20029;-40
2022/03/06 00:05:34;;;;;;;2.80;2.17;;;;;;;19.24;38.02;100701.66;5006326;28;20108;-39
2022/03/06 00:08:02;;;;;;;3.67;1.92;;;;;;;19.23;38.03;100706.13;5001304;28;20334;-40
2022/03/06 00:10:27;;;;;;;2.75;1.92;;;;;;;19.23;38.17;100705.31;5004354;28;20037;-39
2022/03/06 00:12:53;;;;;;;2.83;1.95;;;;;;;19.22;38.50;100708.97;4996097;28;20050;-40
2022/03/06 00:15:19;;;;;;;2.00;1.80;;;;;;;19.20;38.12;100706.50;5007450;28;20265;-40
2022/03/06 00:17:45;;;;;;;3.40;1.58;;;;;;;19.21;38.05;100707.31;5005927;28;20069;-40
2022/03/06 00:20:11;;;;;;;1.77;1.33;;;;;;;19.20;38.04;100710.97;5006530;28;20068;-39
2022/03/06 00:22:36;;;;;;;1.75;1.55;;;;;;;19.19;37.98;100722.56;4993181;28;20030;-40
2022/03/06 00:25:04;;;;;;;3.70;1.77;;;;;;;19.19;38.14;100719.91;5002016;28;20022;-40
2022/03/06 00:27:29;;;;;;;2.00;1.80;;;;;;;19.16;38.09;100705.28;4997976;28;20040;-39
2022/03/06 00:29:54;;;;;;;2.40;1.52;;;;;;;19.17;38.19;100708.72;5002844;28;20025;-39
2022/03/06 00:32:20;;;;;;;2.03;1.55;;;;;;;19.15;38.32;100713.38;4999936;28;20080;-39
2022/03/06 00:34:48;;;;;;;2.45;1.60;;;;;;;19.15;38.35;100718.66;4996772;28;20030;-40
2022/03/06 00:37:14;;;;;;;1.95;1.73;;;;;;;19.13;38.61;100720.69;5003540;28;20545;-40
2022/03/06 00:39:40;;;;;;;1.95;1.75;;;;;;;19.12;38.42;100711.94;4997059;28;20454;-40
2022/03/06 00:42:10;;;;;;;2.47;1.88;;;;;;;19.10;38.31;100708.69;4988818;28;20049;-39
2022/03/06 00:44:36;;;;;;;2.70;1.67;;;;;;;19.10;38.42;100715.78;4988780;28;20026;-40
2022/03/06 00:47:03;;;;;;;2.20;1.92;;;;;;;19.10;38.45;100713.16;4990301;28;20508;-41
2022/03/06 00:49:29;;;;;;;2.65;1.92;;;;;;;19.09;38.26;100719.44;5004991;28;20030;-41
2022/03/06 00:51:54;;;;;;;2.45;1.85;;;;;;;19.07;38.16;100719.63;4994419;28;20084;-40
2022/03/06 00:54:20;;;;;;;2.25;1.80;;;;;;;19.07;38.17;100724.09;4991827;28;20032;-40
2022/03/06 00:56:46;;;;;;;2.22;1.90;;;;;;;19.07;38.19;100710.91;5001175;28;20037;-40
2022/03/06 00:59:12;;;;;;;2.08;1.88;;;;;;;19.06;38.18;100710.06;5004292;28;20523;-39
2022/03/06 01:01:37;;;;;;;2.00;1.80;;;;;;;19.06;38.24;100710.06;5003286;28;20025;-39
2022/03/06 01:04:03;;;;;;;4.35;1.85;;;;;;;19.06;38.12;100709.25;4998880;28;20029;-39
2022/03/06 01:06:29;;;;;;;2.17;1.92;;;;;;;19.06;38.13;100714.53;5000942;28;20164;-40
2022/03/06 01:08:54;;;;;;;2.38;1.80;;;;;;;19.06;38.25;100715.34;5003977;28;20032;-39
2022/03/06 01:11:20;;;;;;;3.33;1.88;;;;;;;19.06;38.14;100709.25;5000863;28;20188;-40
2022/03/06 01:13:46;;;;;;;2.30;1.60;;;;;;;19.06;38.16;100709.25;4994385;28;20030;-40
2022/03/06 01:16:11;;;;;;;2.30;1.95;;;;;;;19.05;38.15;100702.34;5001854;28;20034;-40
2022/03/06 01:18:37;;;;;;;2.40;2.03;;;;;;;19.05;38.20;100703.16;4997559;28;20033;-40
2022/03/06 01:21:02;;;;;;;3.03;1.60;;;;;;;19.04;38.04;100698.88;4995493;28;20087;-40
2022/03/06 01:23:28;;;;;;;1.92;1.63;;;;;;;19.06;37.99;100703.97;5002759;28;20045;-41
2022/03/06 01:25:54;;;;;;;2.47;2.28;;;;;;;19.04;38.06;100706.00;4992312;28;20553;-39
2022/03/06 01:28:19;;;;;;;2.65;2.10;;;;;;;19.02;38.05;100700.91;5000927;28;20033;-40
2022/03/06 01:30:45;;;;;;;1.77;1.67;;;;;;;19.01;38.15;100691.34;4992421;28;20026;-40
2022/03/06 01:33:10;;;;;;;2.40;1.90;;;;;;;19.00;38.02;100705.56;4992992;28;20077;-40
2022/03/06 01:35:36;;;;;;;2.33;1.90;;;;;;;18.99;37.94;100692.56;4992262;28;20034;-40
2022/03/06 01:38:01;;;;;;;2.33;2.05;;;;;;;18.98;38.14;100688.28;5002583;28;20489;-40
2022/03/06 01:40:27;;;;;;;2.40;1.83;;;;;;;18.98;37.93;100688.28;4999823;28;20379;-40
2022/03/06 01:42:52;;;;;;;2.55;1.92;;;;;;;18.98;37.98;100693.56;5002297;28;20469;-40
2022/03/06 01:45:20;;;;;;;2.33;2.13;;;;;;;18.97;37.74;100689.28;4996051;28;20066;-40
2022/03/06 01:47:48;;;;;;;2.88;2.58;;;;;;;18.97;37.78;100691.94;5005113;28;20072;-40
2022/03/06 01:50:18;;;;;;;2.75;2.00;;;;;;;18.95;37.94;100696.59;5008158;28;20220;-40
2022/03/06 01:52:45;;;;;;;2.13;1.92;;;;;;;18.95;37.87;100681.56;5004614;28;20061;-40
2022/03/06 01:55:12;;;;;;;3.70;1.75;;;;;;;18.94;37.76;100676.47;5005512;28;20366;-40
2022/03/06 01:57:39;;;;;;;1.98;1.65;;;;;;;18.93;37.86;100682.78;5003850;28;20037;-40
2022/03/06 02:00:09;;;;;;;2.30;1.75;;;;;;;18.92;37.94;100684.59;5007000;28;20069;-39
2022/03/06 02:02:35;;;;;;;2.28;2.08;;;;;;;18.90;37.98;100678.72;5007218;28;20049;-40
2022/03/06 02:05:01;;;;;;;2.70;2.50;;;;;;;18.90;37.97;100670.81;5005210;28;20386;-40
2022/03/06 02:07:27;;;;;;;2.38;1.80;;;;;;;18.89;37.79;100675.25;5002993;28;20034;-40
2022/03/06 02:09:53;;;;;;;2.33;2.00;;;;;;;18.89;37.76;100682.38;4997390;28;20111;-40
2022/03/06 02:12:22;;;;;;;2.03;1.83;;;;;;;18.87;37.63;100677.28;5182277;22;20057;-66
2022/03/06 02:14:49;;;;;;;2.00;1.67;;;;;;;18.85;37.83;100671.38;5030521;28;20477;-67
2022/03/06 02:17:14;;;;;;;4.57;2.20;;;;;;;18.86;37.87;100666.91;5029657;28;20064;-67
2022/03/06 02:19:55;;;;;;;2.22;1.88;;;;;;;18.82;37.59;100681.50;5030381;28;20065;-67
2022/03/06 02:22:28;;;;;;;4.28;1.83;;;;;;;18.82;37.73;100669.13;5030379;28;20481;-67
2022/03/06 02:24:55;;;;;;;2.20;2.00;;;;;;;18.83;37.64;100675.22;5030856;28;20069;-67
2022/03/06 02:27:21;;;;;;;3.28;2.88;;;;;;;18.83;37.60;100668.13;5030645;28;20029;-67
2022/03/06 02:29:46;;;;;;;2.50;2.20;;;;;;;18.82;37.46;100663.03;5030347;28;20443;-66
2022/03/06 02:32:14;;;;;;;3.72;2.25;;;;;;;18.81;37.50;100667.50;5029356;28;20037;-67
2022/03/06 02:34:42;;;;;;;2.55;1.98;;;;;;;18.81;37.46;100664.03;5029217;28;20029;-67
2022/03/06 02:37:11;;;;;;;2.20;1.98;;;;;;;18.80;37.33;100663.22;5029068;28;20053;-67
2022/03/06 02:39:36;;;;;;;2.65;2.25;;;;;;;18.80;37.31;100665.03;5029197;28;20049;-67
2022/03/06 02:42:03;;;;;;;3.58;2.47;;;;;;;18.79;37.45;100660.78;5029340;28;20065;-66
2022/03/06 02:44:29;;;;;;;3.97;2.55;;;;;;;18.78;37.29;100661.78;5029743;28;20399;-67
2022/03/06 02:46:55;;;;;;;2.55;2.25;;;;;;;18.78;37.27;100661.78;5029350;28;20048;-66
2022/03/06 02:49:21;;;;;;;3.03;2.30;;;;;;;18.77;37.25;100657.50;5029450;28;20116;-65
2022/03/06 02:51:47;;;;;;;2.33;1.92;;;;;;;18.76;37.31;100661.16;5028590;28;20033;-67
2022/03/06 02:54:17;;;;;;;2.65;1.90;;;;;;;18.75;37.18;100660.34;5028635;28;20048;-67
2022/03/06 02:56:43;;;;;;;2.45;2.10;;;;;;;18.75;37.22;100657.69;5027711;28;20037;-67
2022/03/06 02:59:09;;;;;;;2.92;2.17;;;;;;;18.75;37.13;100656.88;5028430;28;20095;-67
2022/03/06 03:01:39;;;;;;;3.05;2.25;;;;;;;18.74;37.25;100658.72;5029285;28;20480;-67
2022/03/06 03:04:05;;;;;;;3.53;1.95;;;;;;;18.74;37.44;100657.91;5028540;28;20045;-67
2022/03/06 03:06:31;;;;;;;3.65;2.15;;;;;;;18.74;37.46;100647.34;5028459;28;20025;-67
2022/03/06 03:08:57;;;;;;;2.17;1.83;;;;;;;18.73;37.31;100650.97;5028511;28;20103;-67
2022/03/06 03:11:23;;;;;;;3.42;2.33;;;;;;;18.74;37.31;100647.34;5028388;28;20041;-67
2022/03/06 03:13:49;;;;;;;2.85;2.17;;;;;;;18.73;37.25;100651.81;5029449;28;20075;-67
2022/03/06 03:16:14;;;;;;;3.65;2.33;;;;;;;18.73;37.12;100648.34;5028791;28;20149;-67
2022/03/06 03:18:40;;;;;;;3.17;2.45;;;;;;;18.72;37.12;100655.44;5028681;28;20033;-67
2022/03/06 03:21:05;;;;;;;2.40;1.83;;;;;;;18.70;37.15;100662.75;5028689;28;20120;-67
2022/03/06 03:23:30;;;;;;;2.35;1.75;;;;;;;18.70;37.34;100657.47;5028664;28;20037;-67
2022/03/06 03:25:56;;;;;;;2.92;2.50;;;;;;;18.69;37.06;100655.00;5029008;28;20025;-67
2022/03/06 03:28:21;;;;;;;2.22;2.00;;;;;;;18.68;37.11;100651.56;5028659;28;20045;-67
2022/03/06 03:30:47;;;;;;;3.60;1.88;;;;;;;18.68;37.08;100651.56;5028630;28;20504;-67
2022/03/06 03:33:12;;;;;;;4.18;2.13;;;;;;;18.68;36.95;100653.38;5028586;28;20116;-67
2022/03/06 03:35:38;;;;;;;3.50;2.22;;;;;;;18.66;37.01;100648.28;5027971;28;20115;-67
2022/03/06 03:38:04;;;;;;;3.33;2.08;;;;;;;18.66;37.05;100650.94;5028408;28;20108;-67
2022/03/06 03:40:29;;;;;;;2.97;2.42;;;;;;;18.65;37.22;100646.66;5028072;28;20080;-67
2022/03/06 03:42:55;;;;;;;2.83;2.13;;;;;;;18.65;37.05;100659.88;5028291;28;20025;-67
2022/03/06 03:45:20;;;;;;;2.80;2.10;;;;;;;18.63;36.99;100656.59;5027781;28;20040;-67
2022/03/06 03:47:46;;;;;;;3.20;2.15;;;;;;;18.64;36.96;100660.06;5027532;28;20029;-67
2022/03/06 03:50:12;;;;;;;3.45;2.05;;;;;;;18.62;37.08;100649.69;5028548;28;20091;-67
2022/03/06 03:52:37;;;;;;;3.88;2.30;;;;;;;18.63;37.08;100658.41;5028184;28;20060;-67
2022/03/06 03:55:04;;;;;;;2.58;2.28;;;;;;;18.62;36.98;100665.53;5028103;28;20053;-67
2022/03/06 03:57:29;;;;;;;2.20;1.90;;;;;;;18.62;36.99;100660.25;5028039;28;20473;-67
2022/03/06 03:59:54;;;;;;;2.40;1.60;;;;;;;18.61;37.04;100661.25;5027863;28;20109;-67
2022/03/06 04:02:20;;;;;;;2.30;1.95;;;;;;;18.61;37.01;100653.34;5028350;28;20030;-67
2022/03/06 04:04:45;;;;;;;2.45;2.20;;;;;;;18.59;37.00;100655.31;5028017;28;20033;-67
2022/03/06 04:07:11;;;;;;;2.85;2.08;;;;;;;18.58;37.00;100658.97;5027883;28;20033;-67
2022/03/06 04:09:36;;;;;;;2.28;1.92;;;;;;;18.58;36.91;100658.97;5028182;28;20491;-67
2022/03/06 04:12:02;;;;;;;3.15;2.45;;;;;;;18.57;36.96;100652.88;5027650;28;20053;-67
2022/03/06 04:14:27;;;;;;;2.28;1.95;;;;;;;18.57;36.75;100657.34;5020288;28;20037;-67
2022/03/06 04:16:53;;;;;;;2.45;2.22;;;;;;;18.56;36.76;100650.41;5027866;28;20177;-66
2022/03/06 04:19:19;;;;;;;1.98;1.88;;;;;;;18.55;36.77;100649.59;5027988;28;20448;-67
2022/03/06 04:21:44;;;;;;;2.17;1.75;;;;;;;18.55;36.68;100654.06;5027292;28;20591;-67
2022/03/06 04:24:09;;;;;;;1.90;1.52;;;;;;;18.54;36.73;100658.53;5027749;28;20390;-67
2022/03/06 04:26:35;;;;;;;2.35;2.15;;;;;;;18.54;36.72;100660.34;5027069;28;20083;-67
2022/03/06 04:29:02;;;;;;;3.10;2.15;;;;;;;18.54;36.70;100655.06;5027015;28;20424;-67
2022/03/06 04:31:28;;;;;;;2.35;2.10;;;;;;;18.52;36.71;100655.25;5026597;28;20033;-67
2022/03/06 04:33:53;;;;;;;3.00;2.28;;;;;;;18.53;36.73;100656.09;5027557;28;20030;-67
2022/03/06 04:36:19;;;;;;;2.58;2.13;;;;;;;18.51;36.57;100653.63;5026721;28;20032;-67
2022/03/06 04:38:44;;;;;;;2.00;1.80;;;;;;;18.51;36.62;100652.81;5042477;28;20108;-67
2022/03/06 04:41:10;;;;;;;2.40;2.20;;;;;;;18.50;36.70;100657.28;5027347;28;20033;-65
2022/03/06 04:43:36;;;;;;;2.65;2.45;;;;;;;18.49;36.71;100658.28;5027101;28;20021;-67
2022/03/06 04:46:03;;;;;;;2.45;2.25;;;;;;;18.47;36.73;100655.03;5027089;28;20479;-67
2022/03/06 04:48:28;;;;;;;2.53;2.13;;;;;;;18.47;36.69;100651.56;5017917;28;20025;-67
2022/03/06 04:50:54;;;;;;;2.45;1.73;;;;;;;18.46;36.68;100649.94;5026428;28;20038;-67
2022/03/06 04:53:19;;;;;;;2.83;2.00;;;;;;;18.46;36.67;100655.22;5027141;28;20029;-67
2022/03/06 04:55:44;;;;;;;2.83;2.25;;;;;;;18.44;36.60;100657.22;5027071;28;20025;-67
2022/03/06 04:58:10;;;;;;;2.35;2.03;;;;;;;18.43;36.57;100651.13;5027033;28;20369;-67
2022/03/06 05:00:35;;;;;;;3.72;1.77;;;;;;;18.43;36.60;100658.25;5027296;28;20160;-67
2022/03/06 05:03:01;;;;;;;3.55;2.03;;;;;;;18.42;36.47;100649.53;5026420;28;20022;-67
2022/03/06 05:05:26;;;;;;;2.22;1.70;;;;;;;18.41;36.54;100666.34;5026120;28;20029;-67
2022/03/06 05:07:52;;;;;;;3.17;2.25;;;;;;;18.41;36.50;100649.72;5026286;28;20026;-67
2022/03/06 05:10:17;;;;;;;2.55;2.35;;;;;;;18.41;36.50;100652.34;5026831;28;20053;-67
2022/03/06 05:12:43;;;;;;;2.67;2.10;;;;;;;18.40;36.37;100662.09;5026231;28;20199;-66
2022/03/06 05:15:11;;;;;;;2.70;2.20;;;;;;;18.40;36.42;100661.28;5026312;28;20032;-67
2022/03/06 05:17:38;;;;;;;3.75;2.22;;;;;;;18.40;36.50;100661.28;5026703;28;20033;-67
2022/03/06 05:20:05;;;;;;;2.17;1.67;;;;;;;18.40;36.34;100658.63;5025421;28;20381;-67
2022/03/06 05:22:30;;;;;;;2.05;1.70;;;;;;;18.41;36.45;100657.63;5041166;28;20120;-67
2022/03/06 05:24:57;;;;;;;2.42;2.08;;;;;;;18.39;36.38;100665.72;5026657;28;20131;-67
2022/03/06 05:27:23;;;;;;;2.58;1.92;;;;;;;18.40;36.48;100667.38;5026480;28;20101;-67
2022/03/06 05:29:49;;;;;;;2.22;1.95;;;;;;;18.38;36.43;100661.47;5026843;28;20035;-67
2022/03/06 05:32:14;;;;;;;2.25;1.77;;;;;;;18.39;36.40;100664.91;5025908;28;20480;-67
2022/03/06 05:34:39;;;;;;;2.75;2.45;;;;;;;18.39;36.30;100670.19;5026851;28;20018;-67
2022/03/06 05:37:05;;;;;;;2.05;1.65;;;;;;;18.39;36.27;100670.19;5026198;28;20044;-67
2022/03/06 05:39:30;;;;;;;2.53;2.13;;;;;;;18.39;36.30;100667.56;5026723;28;20029;-67
2022/03/06 05:41:56;;;;;;;2.33;1.80;;;;;;;18.38;36.39;100673.84;5026228;28;20112;-67
2022/03/06 05:44:21;;;;;;;2.75;1.65;;;;;;;18.39;36.25;100678.09;5026883;28;20025;-67
2022/03/06 05:46:47;;;;;;;2.05;1.85;;;;;;;18.37;36.28;100673.03;5026703;28;20068;-67
2022/03/06 05:49:12;;;;;;;3.92;1.90;;;;;;;18.38;36.19;100673.84;5026575;28;20061;-67
2022/03/06 05:51:42;;;;;;;2.67;2.28;;;;;;;18.35;36.22;100680.31;5026664;28;20038;-67
2022/03/06 05:54:07;;;;;;;2.15;1.95;;;;;;;18.36;36.12;100681.94;5026015;28;20057;-67
2022/03/06 05:56:33;;;;;;;2.40;2.10;;;;;;;18.35;36.20;100688.22;5026937;28;20065;-67
2022/03/06 05:59:00;;;;;;;2.75;1.83;;;;;;;18.34;36.02;100691.88;5026772;28;20025;-67
2022/03/06 06:01:25;;;;;;;2.28;2.05;;;;;;;18.32;36.13;100685.97;5023900;28;20463;-67
2022/03/06 06:03:51;;;;;;;2.40;2.20;;;;;;;18.31;36.12;100684.31;5026695;28;20114;-67
2022/03/06 06:06:16;;;;;;;2.70;1.90;;;;;;;18.30;36.08;100692.44;5026414;28;20125;-67
2022/03/06 06:08:42;;;;;;;2.50;2.30;;;;;;;18.29;36.06;100698.72;5025481;28;20029;-67
2022/03/06 06:11:07;;;;;;;2.78;2.30;;;;;;;18.27;35.95;100687.53;5026626;28;20045;-67
2022/03/06 06:13:33;;;;;;;2.20;2.00;;;;;;;18.27;35.93;100692.81;5025389;28;20115;-67
2022/03/06 06:15:59;;;;;;;2.85;2.38;;;;;;;18.26;35.87;100688.53;5038090;28;20425;-67
2022/03/06 06:18:30;;;;;;;2.45;2.22;;;;;;;18.26;35.98;100699.09;5022378;28;20033;-67
2022/03/06 06:20:57;;;;;;;2.22;2.03;;;;;;;18.24;35.85;100700.09;5018568;28;20033;-67
2022/03/06 06:23:22;;;;;;;3.38;2.50;;;;;;;18.23;35.88;100685.28;5025676;28;20080;-67
2022/03/06 06:25:48;;;;;;;3.10;2.22;;;;;;;18.23;35.84;100700.28;5025857;28;20104;-67
2022/03/06 06:28:13;;;;;;;2.92;2.25;;;;;;;18.23;35.90;100702.91;5028741;28;20060;-67
2022/03/06 06:30:39;;;;;;;2.78;2.30;;;;;;;18.22;35.89;100701.28;5029984;28;20120;-67
2022/03/06 06:33:04;;;;;;;2.40;1.98;;;;;;;18.23;35.92;100697.63;5029974;28;20372;-67
2022/03/06 06:35:30;;;;;;;2.60;2.40;;;;;;;18.22;35.81;100699.47;5030177;28;20109;-67
2022/03/06 06:37:55;;;;;;;3.80;2.42;;;;;;;18.20;35.95;100704.09;5028850;28;20495;-67
2022/03/06 06:40:21;;;;;;;2.13;1.92;;;;;;;18.22;36.02;100710.00;5029755;28;20056;-67
2022/03/06 06:42:47;;;;;;;7.00;2.92;;;;;;;18.20;35.83;100704.09;5027172;28;20041;-67
2022/03/06 06:45:12;;;;;;;2.63;2.38;;;;;;;18.20;35.83;100698.00;5028543;28;20041;-67
2022/03/06 06:47:37;;;;;;;3.22;2.60;;;;;;;18.19;35.89;100706.94;5027062;28;20026;-67
2022/03/06 06:50:05;;;;;;;3.10;2.58;;;;;;;18.18;35.88;100711.38;5012923;28;20029;-67
2022/03/06 06:52:30;;;;;;;2.45;2.13;;;;;;;18.18;35.89;100703.47;5028362;28;20036;-67
2022/03/06 06:54:56;;;;;;;2.33;1.85;;;;;;;18.17;35.72;100709.75;5027397;28;20033;-67
2022/03/06 06:57:21;;;;;;;2.42;2.15;;;;;;;18.16;35.97;100702.84;5027256;28;20037;-67
2022/03/06 06:59:47;;;;;;;3.13;2.83;;;;;;;18.16;35.85;100705.47;5025672;28;20036;-67
2022/03/06 07:02:12;;;;;;;2.72;2.40;;;;;;;18.15;35.96;100701.22;5029023;28;20521;-67
2022/03/06 07:04:38;;;;;;;2.20;2.00;;;;;;;18.15;35.75;100706.50;5029559;28;20060;-67
2022/03/06 07:07:03;;;;;;;3.20;2.78;;;;;;;18.15;35.94;100711.75;5028696;28;20036;-67
2022/03/06 07:09:29;;;;;;;2.38;1.90;;;;;;;18.15;35.86;100700.41;5029421;28;20021;-67
2022/03/06 07:11:54;;;;;;;2.75;2.47;;;;;;;18.14;35.89;100707.50;5028705;28;20099;-67
2022/03/06 07:14:20;;;;;;;3.05;2.28;;;;;;;18.15;35.97;100710.94;5027846;28;20387;-62
2022/03/06 07:16:45;;;;;;;2.85;2.33;;;;;;;18.15;35.92;100719.66;5025537;28;20024;-62
2022/03/06 07:19:11;;;;;;;3.95;2.35;;;;;;;18.16;35.85;100708.13;5026951;28;20025;-62
2022/03/06 07:21:37;;;;;;;3.15;2.28;;;;;;;18.18;35.84;100718.47;5027314;28;20500;-61
2022/03/06 07:24:04;;;;;;;2.83;2.47;;;;;;;18.20;35.70;100717.28;5027960;28;20128;-62
2022/03/06 07:26:30;;;;;;;3.05;2.30;;;;;;;18.22;35.81;100717.91;5027468;28;20033;-61
2022/03/06 07:28:55;;;;;;;3.25;2.50;;;;;;;18.29;35.69;100717.16;5026900;28;20095;-62
2022/03/06 07:31:21;;;;;;;3.65;2.08;;;;;;;18.33;35.73;100708.69;5026152;28;20474;-62
2022/03/06 07:33:46;;;;;;;2.47;2.20;;;;;;;18.42;35.75;100717.31;5028582;28;20481;-62
2022/03/06 07:36:12;;;;;;;3.03;2.47;;;;;;;18.47;35.82;100705.16;5027070;28;20055;-62
2022/03/06 07:38:37;;;;;;;2.67;1.90;;;;;;;18.54;35.77;100705.19;5024340;28;20022;-62
2022/03/06 07:41:03;;;;;;;2.25;2.05;;;;;;;18.61;35.77;100711.38;5010956;28;20099;-62
2022/03/06 07:43:28;;;;;;;2.92;1.95;;;;;;;18.66;35.83;100703.72;5026343;28;20037;-62
2022/03/06 07:45:53;;;;;;;3.22;1.88;;;;;;;18.72;35.88;100713.50;5026212;28;20045;-62
2022/03/06 07:48:19;;;;;;;2.60;1.88;;;;;;;18.78;35.85;100710.09;5025517;28;20037;-62
2022/03/06 07:50:45;;;;;;;3.00;2.30;;;;;;;18.85;35.88;100715.44;5025366;28;20030;-62
2022/03/06 07:53:11;;;;;;;3.17;2.13;;;;;;;18.90;35.65;100713.81;5027056;28;20036;-62
2022/03/06 07:55:38;;;;;;;2.58;2.08;;;;;;;18.96;35.70;100714.06;5027312;28;20502;-63
2022/03/06 07:58:03;;;;;;;2.75;1.77;;;;;;;18.99;35.79;100711.03;5024925;28;20041;-62
2022/03/06 08:00:28;;;;;;;3.13;2.55;;;;;;;19.00;35.78;100720.59;5026156;28;20033;-62
2022/03/06 08:02:56;;;;;;;2.67;1.95;;;;;;;19.01;35.83;100709.03;5027012;28;20033;-61
2022/03/06 08:05:21;;;;;;;2.88;2.58;;;;;;;19.05;35.93;100719.00;5026357;28;20039;-62
2022/03/06 08:07:47;;;;;;;3.17;2.50;;;;;;;19.07;35.82;100716.19;5027127;28;20021;-62
2022/03/06 08:10:12;;;;;;;2.30;2.20;;;;;;;19.10;35.91;100726.34;5027935;28;20038;-62
2022/03/06 08:12:40;;;;;;;2.38;2.10;;;;;;;19.12;35.83;100719.06;5020175;28;20057;-62
2022/03/06 08:15:08;;;;;;;3.33;2.33;;;;;;;19.14;36.02;100720.50;5023315;28;20040;-62
2022/03/06 08:17:34;;;;;;;4.78;1.88;;;;;;;19.19;36.11;100727.84;5023863;28;20500;-62
2022/03/06 08:19:59;;;;;;;5.22;2.58;;;;;;;19.22;36.08;100732.72;5025362;28;20029;-62
2022/03/06 08:22:25;;;;;;;3.13;2.38;;;;;;;19.25;35.93;100721.78;5018474;28;20025;-62
2022/03/06 08:24:51;;;;;;;2.58;1.63;;;;;;;19.27;36.08;100724.22;5024666;28;20029;-62
2022/03/06 08:27:16;;;;;;;3.67;2.55;;;;;;;19.26;36.09;100726.06;5022552;28;20102;-62
2022/03/06 08:29:42;;;;;;;2.90;2.03;;;;;;;19.28;35.99;100723.22;5023705;28;20033;-62
2022/03/06 08:32:08;;;;;;;4.15;2.15;;;;;;;19.28;36.07;100724.03;5025537;28;20049;-62
2022/03/06 08:34:33;;;;;;;2.65;2.00;;;;;;;19.30;36.07;100721.19;5019592;28;20389;-62
2022/03/06 08:36:58;;;;;;;2.65;2.22;;;;;;;19.29;36.29;100723.03;5022688;28;20033;-62
2022/03/06 08:39:24;;;;;;;4.10;1.90;;;;;;;19.30;36.11;100723.84;5025664;28;20068;-61
2022/03/06 08:41:49;;;;;;;2.53;1.50;;;;;;;19.30;36.25;100716.72;5020484;28;20029;-62
2022/03/06 08:44:15;;;;;;;3.30;2.30;;;;;;;19.33;36.11;100723.44;5025871;28;20021;-62
2022/03/06 08:46:40;;;;;;;4.57;2.20;;;;;;;19.33;36.17;100721.63;5021467;28;20032;-62
2022/03/06 08:49:06;;;;;;;3.08;2.78;;;;;;;19.34;36.22;100712.69;5026288;28;20496;-62
2022/03/06 08:51:32;;;;;;;4.55;2.28;;;;;;;19.37;36.26;100712.31;5024065;28;20102;-63
2022/03/06 08:53:58;;;;;;;4.15;2.13;;;;;;;19.39;36.23;100714.72;5019947;28;20029;-62
2022/03/06 08:56:24;;;;;;;4.57;2.30;;;;;;;19.42;36.44;100709.84;5026544;28;20430;-61
2022/03/06 08:58:49;;;;;;;2.83;2.38;;;;;;;19.43;36.54;100710.66;5019792;28;20025;-62
2022/03/06 09:01:15;;;;;;;3.92;2.20;;;;;;;19.47;36.43;100720.66;5024721;28;20112;-61
2022/03/06 09:03:40;;;;;;;4.82;2.63;;;;;;;19.53;36.63;100709.34;5010961;28;20816;-63
2022/03/06 09:06:06;;;;;;;5.57;2.05;;;;;;;19.64;36.93;100712.44;5025424;28;20042;-63
2022/03/06 09:08:31;;;;;;;3.90;2.20;;;;;;;19.69;36.76;100713.47;5021351;28;20037;-62
2022/03/06 09:10:57;;;;;;;3.35;2.55;;;;;;;19.74;37.39;100697.84;5022240;28;20330;-61
2022/03/06 09:13:22;;;;;;;3.55;2.55;;;;;;;19.72;37.67;100709.63;5024834;28;20060;-64
2022/03/06 09:15:47;;;;;;;4.85;2.22;;;;;;;19.67;37.56;100710.22;5022596;28;20033;-62
2022/03/06 09:18:13;;;;;;;14.05;3.08;;;;;;;19.64;37.53;100715.06;5022780;28;20513;-61
2022/03/06 09:20:38;;;;;;;2.55;1.90;;;;;;;19.60;37.55;100706.72;5023516;28;20437;-61
2022/03/06 09:23:05;;;;;;;3.75;2.10;;;;;;;19.60;37.58;100716.47;5016635;28;20034;-60
2022/03/06 09:25:33;;;;;;;4.20;1.80;;;;;;;19.58;37.56;100705.28;5020021;28;20036;-61
2022/03/06 09:28:02;;;;;;;4.93;2.22;;;;;;;19.56;37.83;100716.06;5023744;28;20037;-60
2022/03/06 09:30:28;;;;;;;2.58;2.15;;;;;;;19.55;37.79;100709.94;5020442;28;20042;-61
2022/03/06 09:32:54;;;;;;;3.38;1.42;;;;;;;19.55;37.57;100712.59;5020519;28;20033;-61
2022/03/06 09:35:19;;;;;;;2.60;2.22;;;;;;;19.58;37.62;100713.22;5022976;28;20408;-61
2022/03/06 09:37:45;;;;;;;6.55;2.40;;;;;;;19.58;37.90;100707.94;5023402;28;20140;-62
2022/03/06 09:40:11;;;;;;;4.43;2.28;;;;;;;19.59;37.89;100709.56;5019864;28;20135;-61
2022/03/06 09:42:37;;;;;;;3.00;2.55;;;;;;;19.63;37.67;100718.72;5020367;28;20030;-63
2022/03/06 09:45:08;;;;;;;9.00;2.53;;;;;;;19.68;37.85;100708.38;5014794;28;20459;-60
2022/03/06 09:47:35;;;;;;;8.95;2.78;;;;;;;19.77;38.16;100707.19;5020814;28;20112;-61
2022/03/06 09:50:01;;;;;;;13.70;4.18;;;;;;;19.81;38.81;100700.50;5017012;28;20034;-62
2022/03/06 09:52:27;;;;;;;26.55;6.65;;;;;;;19.84;38.98;100700.09;5014912;28;20029;-62
2022/03/06 09:54:53;;;;;;;21.95;5.63;;;;;;;19.85;39.27;100699.06;5017714;28;20048;-61
2022/03/06 09:57:19;;;;;;;14.90;4.35;;;;;;;19.89;39.76;100702.94;5021994;28;20032;-61
2022/03/06 09:59:46;;;;;;;8.77;3.50;;;;;;;19.89;40.18;100713.50;5019588;28;20101;-61
2022/03/06 10:02:11;;;;;;;9.73;3.38;;;;;;;19.89;40.53;100710.88;5013511;28;20030;-61
2022/03/06 10:04:37;;;;;;;7.00;3.10;;;;;;;19.86;40.52;100700.69;5013255;28;20045;-63
2022/03/06 10:07:04;;;;;;;8.45;3.40;;;;;;;19.86;40.35;100705.97;5011085;28;20102;-61
2022/03/06 10:09:41;;;;;;;9.35;3.97;;;;;;;19.86;41.18;100709.44;5013222;28;20124;-60
2022/03/06 10:12:22;;;;;;;10.82;4.03;;;;;;;19.84;41.05;100710.69;5015693;28;20053;-62
2022/03/06 10:14:50;;;;;;;9.27;3.30;;;;;;;19.84;40.94;100698.28;5016119;28;20045;-61
2022/03/06 10:17:21;;;;;;;7.65;3.05;;;;;;;19.86;41.12;100700.69;5020662;28;20032;-62
2022/03/06 10:19:50;;;;;;;19.38;3.90;;;;;;;19.87;42.71;100702.31;5024945;28;20021;-61
2022/03/06 10:22:16;;;;;;;9.85;3.15;;;;;;;19.86;42.67;100696.22;5013197;28;20116;-61
2022/03/06 10:24:48;;;;;;;9.05;3.85;;;;;;;19.87;43.08;100697.03;5026611;28;20079;-62
2022/03/06 10:27:14;;;;;;;10.43;2.95;;;;;;;19.86;43.33;100690.13;5016967;28;20025;-61
2022/03/06 10:29:39;;;;;;;9.80;3.35;;;;;;;19.86;44.32;100690.13;5025597;28;20380;-61
2022/03/06 10:32:07;;;;;;;8.77;3.33;;;;;;;19.86;45.03;100690.13;5023868;28;20119;-63
2022/03/06 10:34:39;;;;;;;8.27;3.10;;;;;;;19.82;45.61;100679.16;5016261;28;20437;-62
2022/03/06 10:37:06;;;;;;;6.97;3.17;;;;;;;19.83;46.04;100682.63;5008783;28;20029;-62
2022/03/06 10:39:45;;;;;;;10.93;3.38;;;;;;;19.80;46.33;100681.19;5016766;28;20212;-62
2022/03/06 10:42:11;;;;;;;9.27;3.55;;;;;;;19.81;47.43;100676.72;5011328;28;20042;-62
2022/03/06 10:44:45;;;;;;;6.60;3.63;;;;;;;19.80;48.52;100685.66;5022484;28;20030;-61
2022/03/06 10:47:11;;;;;;;12.77;4.05;;;;;;;19.62;44.85;100669.53;5023316;28;20037;-60
2022/03/06 10:49:36;;;;;;;16.35;3.83;;;;;;;19.55;42.07;100682.72;5028995;28;20033;-61
2022/03/06 10:52:16;;;;;;;10.85;4.05;;;;;;;19.52;39.60;100673.34;5028543;28;20047;-61
2022/03/06 10:54:52;;;;;;;16.90;3.95;;;;;;;19.50;38.93;100675.34;5028312;28;20024;-61
2022/03/06 10:57:19;;;;;;;7.90;3.47;;;;;;;19.49;38.97;100673.72;5021413;28;20025;-60
2022/03/06 10:59:45;;;;;;;12.75;2.63;;;;;;;19.49;38.45;100662.31;5026430;28;20029;-61
2022/03/06 11:02:12;;;;;;;6.32;3.20;;;;;;;19.46;37.74;100663.53;5024353;28;20381;-61
2022/03/06 11:04:38;;;;;;;14.40;4.25;;;;;;;19.45;37.48;100656.63;5026191;28;20030;-62
2022/03/06 11:07:05;;;;;;;10.52;3.40;;;;;;;19.43;37.34;100647.25;5021583;28;20398;-62
2022/03/06 11:09:30;;;;;;;9.63;3.55;;;;;;;19.40;36.38;100629.97;5027251;28;20072;-62
2022/03/06 11:11:56;;;;;;;6.53;2.85;;;;;;;19.40;36.36;100637.91;5027823;28;20073;-62
2022/03/06 11:14:22;;;;;;;9.13;3.10;;;;;;;19.41;36.17;100628.16;5014864;28;20077;-62
2022/03/06 11:16:48;;;;;;;5.88;3.30;;;;;;;19.38;36.01;100629.34;5017171;28;20033;-63
2022/03/06 11:19:13;;;;;;;10.27;3.38;;;;;;;19.37;35.55;100624.31;5014539;28;20029;-62